createdAt,value
2022-10-19T00:02:19.999Z,8.63
2022-10-19T00:04:50.206Z,8.62
2022-10-19T00:07:20.357Z,8.67
2022-10-19T00:09:50.541Z,8.71
2022-10-19T00:12:20.559Z,8.68
2022-10-19T00:14:53.194Z,8.64
2022-10-19T00:17:23.189Z,8.73
2022-10-19T00:19:53.230Z,8.75
2022-10-19T00:22:23.255Z,8.71
2022-10-19T00:24:53.252Z,8.70
2022-10-19T00:27:23.256Z,8.78
2022-10-19T00:29:56.211Z,8.77
2022-10-19T00:32:29.346Z,8.83
2022-10-19T00:34:59.347Z,8.84
2022-10-19T00:37:29.741Z,8.89
2022-10-19T00:40:00.146Z,8.86
2022-10-19T00:42:30.828Z,8.85
2022-10-19T00:45:15.600Z,8.83
2022-10-19T00:47:47.896Z,8.84
2022-10-19T00:50:18.674Z,8.82
2022-10-19T00:52:49.231Z,8.81
2022-10-19T00:55:20.017Z,8.85
2022-10-19T01:00:24.644Z,8.81
2022-10-19T01:02:54.867Z,8.82
2022-10-19T01:05:25.460Z,8.79
2022-10-19T01:07:55.859Z,8.79
2022-10-19T01:10:33.644Z,8.75
2022-10-19T01:13:20.808Z,8.68
2022-10-19T01:16:00.644Z,8.64
2022-10-19T01:18:44.810Z,8.67
2022-10-19T01:21:23.577Z,8.66
2022-10-19T01:24:40.617Z,8.60
2022-10-19T01:27:40.378Z,8.59
2022-10-19T01:30:18.689Z,8.59
2022-10-19T01:33:04.898Z,8.58
2022-10-19T01:35:41.000Z,8.59
2022-10-19T01:38:22.836Z,8.64
2022-10-19T01:41:00.965Z,8.66
2022-10-19T01:43:40.070Z,8.65
2022-10-19T01:46:16.423Z,8.62
2022-10-19T01:48:51.642Z,8.64
2022-10-19T01:51:25.744Z,8.60
2022-10-19T01:53:59.267Z,8.65
2022-10-19T01:56:33.563Z,8.67
2022-10-19T01:59:07.013Z,8.73
2022-10-19T02:01:45.293Z,8.70
2022-10-19T02:04:18.640Z,8.64
2022-10-19T02:06:48.951Z,8.61
2022-10-19T02:09:21.086Z,8.59
2022-10-19T02:11:56.921Z,8.61
2022-10-19T02:14:34.064Z,8.64
2022-10-19T02:17:11.145Z,8.63
2022-10-19T02:19:41.676Z,8.65
2022-10-19T02:22:12.135Z,8.68
2022-10-19T02:24:42.470Z,8.67
2022-10-19T02:27:13.048Z,8.78
2022-10-19T02:29:43.685Z,8.87
2022-10-19T02:32:17.428Z,8.88
2022-10-19T02:34:47.682Z,8.90
2022-10-19T02:37:20.948Z,8.86
2022-10-19T02:39:53.460Z,8.87
2022-10-19T02:42:31.550Z,8.88
2022-10-19T02:45:07.366Z,9.19
2022-10-19T02:47:45.371Z,9.26
2022-10-19T02:50:15.853Z,9.29
2022-10-19T02:52:46.055Z,9.42
2022-10-19T02:55:16.132Z,9.28
2022-10-19T02:57:46.184Z,9.20
2022-10-19T03:00:16.956Z,9.23
2022-10-19T03:02:50.270Z,9.29
2022-10-19T03:05:20.768Z,9.21
2022-10-19T03:07:50.902Z,9.15
2022-10-19T03:10:21.602Z,9.33
2022-10-19T03:12:51.613Z,9.32
2022-10-19T03:15:25.259Z,9.42
2022-10-19T03:17:59.370Z,9.54
2022-10-19T03:20:30.407Z,9.53
2022-10-19T03:23:00.902Z,9.75
2022-10-19T03:25:30.900Z,9.72
2022-10-19T03:28:01.177Z,9.81
2022-10-19T03:30:31.763Z,9.81
2022-10-19T03:33:04.455Z,9.86
2022-10-19T03:35:34.536Z,9.83
2022-10-19T03:38:04.819Z,9.89
2022-10-19T03:40:35.612Z,9.87
2022-10-19T03:43:05.736Z,10.05
2022-10-19T03:45:39.044Z,9.99
2022-10-19T03:48:11.924Z,10.02
2022-10-19T03:50:41.958Z,10.01
2022-10-19T03:53:12.011Z,9.89
2022-10-19T03:55:42.025Z,9.96
2022-10-19T03:58:12.209Z,10.04
2022-10-19T04:00:43.472Z,10.05
2022-10-19T04:03:16.272Z,10.08
2022-10-19T04:05:46.353Z,10.36
2022-10-19T04:08:16.804Z,10.64
2022-10-19T04:10:47.117Z,10.67
2022-10-19T04:13:17.168Z,10.65
2022-10-19T04:15:49.396Z,10.67
2022-10-19T04:18:22.324Z,10.67
2022-10-19T04:20:53.133Z,10.67
2022-10-19T04:23:23.397Z,10.73
2022-10-19T04:25:53.937Z,10.74
2022-10-19T04:28:24.122Z,10.62
2022-10-19T04:30:54.672Z,10.60
2022-10-19T04:33:27.892Z,10.41
2022-10-19T04:36:01.853Z,10.37
2022-10-19T04:38:32.775Z,10.48
2022-10-19T04:41:04.707Z,10.45
2022-10-19T04:43:34.946Z,10.47
2022-10-19T04:46:13.285Z,10.53
2022-10-19T04:48:46.739Z,10.55
2022-10-19T04:51:17.081Z,10.57
2022-10-19T04:53:47.751Z,10.52
2022-10-19T04:56:19.573Z,10.58
2022-10-19T04:58:50.384Z,10.72
2022-10-19T05:01:23.415Z,10.71
2022-10-19T05:03:59.959Z,10.77
2022-10-19T05:06:30.413Z,10.94
2022-10-19T05:09:00.914Z,10.77
2022-10-19T05:11:31.157Z,10.72
2022-10-19T05:14:01.468Z,10.87
2022-10-19T05:16:31.670Z,10.79
2022-10-19T05:19:05.556Z,10.67
2022-10-19T05:21:35.763Z,10.64
2022-10-19T05:24:05.757Z,10.61
2022-10-19T05:26:35.991Z,10.52
2022-10-19T05:29:06.388Z,10.49
2022-10-19T05:31:37.526Z,10.68
2022-10-19T05:34:10.557Z,10.81
2022-10-19T05:36:42.615Z,10.86
2022-10-19T05:39:16.741Z,10.85
2022-10-19T05:41:48.380Z,11.06
2022-10-19T05:44:20.224Z,10.99
2022-10-19T05:46:51.056Z,11.29
2022-10-19T05:49:25.483Z,11.35
2022-10-19T05:51:55.553Z,11.34
2022-10-19T05:54:27.783Z,11.23
2022-10-19T05:56:58.976Z,11.27
2022-10-19T05:59:28.997Z,11.30
2022-10-19T06:01:59.071Z,11.36
2022-10-19T06:04:33.656Z,11.42
2022-10-19T06:07:04.405Z,11.38
2022-10-19T06:09:36.530Z,11.54
2022-10-19T06:12:07.058Z,11.68
2022-10-19T06:14:37.322Z,11.79
2022-10-19T06:17:07.791Z,11.87
2022-10-19T06:19:41.057Z,12.08
2022-10-19T06:22:11.275Z,12.15
2022-10-19T06:24:41.321Z,12.22
2022-10-19T06:27:11.542Z,12.29
2022-10-19T06:29:41.747Z,12.25
2022-10-19T06:32:11.990Z,12.34
2022-10-19T06:34:45.117Z,12.43
2022-10-19T06:37:15.465Z,12.51
2022-10-19T06:39:45.963Z,12.52
2022-10-19T06:42:16.211Z,12.60
2022-10-19T06:44:46.433Z,12.64
2022-10-19T06:47:17.916Z,12.72
2022-10-19T06:49:51.139Z,12.79
2022-10-19T06:52:21.297Z,12.75
2022-10-19T06:54:51.647Z,12.86
2022-10-19T06:57:22.163Z,12.89
2022-10-19T06:59:53.689Z,12.98
2022-10-19T07:02:24.067Z,13.07
2022-10-19T07:04:56.989Z,13.07
2022-10-19T07:07:27.092Z,13.19
2022-10-19T07:09:57.443Z,13.13
2022-10-19T07:12:27.700Z,13.21
2022-10-19T07:14:58.285Z,13.24
2022-10-19T07:17:28.447Z,13.33
2022-10-19T07:20:01.584Z,13.43
2022-10-19T07:22:31.917Z,13.34
2022-10-19T07:25:02.382Z,13.54
2022-10-19T07:27:37.431Z,13.63
2022-10-19T07:30:08.699Z,13.67
2022-10-19T07:32:39.115Z,13.71
2022-10-19T07:35:14.541Z,13.87
2022-10-19T07:37:45.805Z,13.92
2022-10-19T07:40:16.497Z,14.02
2022-10-19T07:42:49.615Z,14.01
2022-10-19T07:45:20.891Z,14.01
2022-10-19T07:47:51.312Z,14.13
2022-10-19T07:50:24.877Z,14.18
2022-10-19T07:52:55.196Z,14.28
2022-10-19T07:55:25.384Z,14.38
2022-10-19T07:57:55.629Z,14.51
2022-10-19T08:00:28.883Z,14.55
2022-10-19T08:03:43.187Z,14.76
2022-10-19T08:05:52.295Z,14.94
2022-10-19T08:08:22.345Z,14.98
2022-10-19T08:10:52.380Z,15.08
2022-10-19T08:13:22.773Z,15.09
2022-10-19T08:15:52.921Z,15.05
2022-10-19T08:18:23.779Z,15.05
2022-10-19T08:20:56.984Z,15.18
2022-10-19T08:23:27.604Z,15.31
2022-10-19T08:26:02.041Z,15.32
2022-10-19T08:28:32.203Z,15.42
2022-10-19T08:31:06.381Z,15.60
2022-10-19T08:33:36.554Z,15.63
2022-10-19T08:36:13.946Z,15.66
2022-10-19T08:38:45.582Z,15.86
2022-10-19T08:41:25.076Z,16.04
2022-10-19T08:44:19.755Z,15.99
2022-10-19T08:47:01.449Z,16.07
2022-10-19T08:49:34.598Z,16.11
2022-10-19T08:52:13.180Z,16.17
2022-10-19T08:54:49.992Z,16.35
2022-10-19T08:57:33.751Z,16.37
2022-10-19T09:00:06.546Z,16.49
2022-10-19T09:02:52.022Z,16.43
2022-10-19T09:05:34.500Z,16.51
2022-10-19T09:08:07.676Z,16.54
2022-10-19T09:10:40.397Z,16.73
2022-10-19T09:13:19.210Z,16.81
2022-10-19T09:15:51.506Z,16.88
2022-10-19T09:18:25.640Z,16.86
2022-10-19T09:21:01.071Z,16.90
2022-10-19T09:23:41.304Z,16.87
2022-10-19T09:26:16.815Z,17.21
2022-10-19T09:28:53.637Z,17.15
2022-10-19T09:31:31.964Z,17.27
2022-10-19T09:34:06.092Z,17.31
2022-10-19T09:36:50.381Z,17.48
2022-10-19T09:39:26.995Z,17.46
2022-10-19T09:42:01.298Z,17.41
2022-10-19T09:44:31.653Z,17.65
2022-10-19T09:47:13.711Z,17.66
2022-10-19T09:49:46.015Z,17.63
2022-10-19T09:52:40.865Z,17.58
2022-10-19T09:55:30.034Z,17.87
2022-10-19T09:58:08.661Z,17.86
2022-10-19T10:00:43.377Z,17.93
2022-10-19T10:03:27.357Z,17.97
2022-10-19T10:05:59.593Z,18.17
2022-10-19T10:08:33.614Z,18.26
2022-10-19T10:11:14.562Z,18.37
2022-10-19T10:13:47.906Z,18.58
2022-10-19T10:16:21.150Z,18.61
2022-10-19T10:18:57.609Z,18.65
2022-10-19T10:21:32.691Z,18.69
2022-10-19T10:24:06.227Z,18.76
2022-10-19T10:26:40.759Z,18.51
2022-10-19T10:29:22.407Z,18.30
2022-10-19T10:31:55.829Z,18.73
2022-10-19T10:34:50.185Z,18.81
2022-10-19T10:37:24.816Z,18.80
2022-10-19T10:39:59.143Z,18.58
2022-10-19T10:42:44.042Z,18.90
2022-10-19T10:45:24.445Z,19.03
2022-10-19T10:47:57.656Z,18.95
2022-10-19T10:50:33.843Z,18.67
2022-10-19T10:53:07.103Z,18.90
2022-10-19T10:55:38.040Z,18.70
2022-10-19T10:58:32.201Z,19.09
2022-10-19T11:01:07.716Z,19.10
2022-10-19T11:03:39.671Z,19.02
2022-10-19T11:06:12.318Z,19.41
2022-10-19T11:08:51.584Z,19.43
2022-10-19T11:11:26.966Z,19.19
2022-10-19T11:14:03.400Z,19.10
2022-10-19T11:16:38.587Z,19.14
2022-10-19T11:19:18.869Z,19.17
2022-10-19T11:22:00.126Z,19.12
2022-10-19T11:24:42.741Z,19.16
2022-10-19T11:27:27.631Z,19.32
2022-10-19T11:30:10.911Z,19.23
2022-10-19T11:33:01.331Z,19.36
2022-10-19T11:35:45.612Z,19.62
2022-10-19T11:38:49.784Z,19.39
2022-10-19T11:41:30.797Z,19.41
2022-10-19T11:44:24.094Z,19.43
2022-10-19T11:47:11.989Z,19.61
2022-10-19T11:49:53.236Z,19.18
2022-10-19T11:52:32.627Z,19.32
2022-10-19T11:55:18.332Z,19.36
2022-10-19T11:57:54.735Z,19.54
2022-10-19T12:00:38.573Z,19.65
2022-10-19T12:03:44.507Z,19.64
2022-10-19T12:06:26.416Z,19.49
2022-10-19T12:09:12.098Z,19.45
2022-10-19T12:11:54.865Z,19.53
2022-10-19T12:14:29.777Z,19.68
2022-10-19T12:17:05.819Z,19.57
2022-10-19T12:19:42.914Z,19.58
2022-10-19T12:22:27.879Z,19.12
2022-10-19T12:25:05.475Z,19.30
2022-10-19T12:27:45.200Z,19.36
2022-10-19T12:30:19.847Z,19.23
2022-10-19T12:33:03.815Z,18.95
2022-10-19T12:36:12.974Z,19.27
2022-10-19T12:39:00.217Z,19.31
2022-10-19T12:41:36.741Z,19.11
2022-10-19T12:44:38.093Z,19.07
2022-10-19T12:47:16.866Z,19.15
2022-10-19T12:49:49.001Z,19.28
2022-10-19T12:52:37.700Z,19.21
2022-10-19T12:55:30.139Z,19.47
2022-10-19T12:58:09.150Z,19.39
2022-10-19T13:00:41.532Z,19.73
2022-10-19T13:03:20.540Z,19.55
2022-10-19T13:05:59.519Z,19.00
2022-10-19T13:08:34.209Z,18.39
2022-10-19T13:11:14.900Z,17.97
2022-10-19T13:13:58.866Z,18.03
2022-10-19T13:16:58.414Z,17.57
2022-10-19T13:19:29.067Z,17.42
2022-10-19T13:22:32.026Z,17.36
2022-10-19T13:25:35.220Z,17.57
2022-10-19T13:28:45.229Z,17.83
2022-10-19T13:31:27.973Z,17.83
2022-10-19T13:33:59.465Z,17.83
2022-10-19T13:36:30.291Z,17.79
2022-10-19T13:39:17.019Z,17.90
2022-10-19T13:41:56.465Z,17.87
2022-10-19T13:44:34.087Z,17.84
2022-10-19T13:47:23.614Z,17.66
2022-10-19T13:50:26.122Z,17.59
2022-10-19T13:53:23.359Z,17.56
2022-10-19T13:56:23.968Z,17.50
2022-10-19T13:59:28.369Z,17.49
2022-10-19T14:02:20.549Z,17.41
2022-10-19T14:05:03.020Z,17.38
2022-10-19T14:07:43.288Z,17.29
2022-10-19T14:10:19.471Z,17.27
2022-10-19T14:12:50.510Z,17.27
2022-10-19T14:15:28.343Z,17.15
2022-10-19T14:18:05.076Z,17.11
2022-10-19T14:20:38.101Z,17.08
2022-10-19T14:23:24.359Z,16.92
2022-10-19T14:25:56.432Z,16.85
2022-10-19T14:28:27.706Z,16.77
2022-10-19T14:30:59.963Z,16.73
2022-10-19T14:33:39.059Z,16.78
2022-10-19T14:36:10.406Z,16.79
2022-10-19T14:38:43.515Z,16.69
2022-10-19T14:41:23.853Z,16.55
2022-10-19T14:43:54.066Z,16.59
2022-10-19T14:46:24.426Z,16.48
2022-10-19T14:49:03.419Z,16.40
2022-10-19T14:51:38.849Z,16.31
2022-10-19T14:54:14.594Z,16.27
2022-10-19T14:56:53.747Z,16.24
2022-10-19T14:59:27.934Z,16.23
2022-10-19T15:02:00.812Z,16.14
2022-10-19T15:04:37.284Z,16.02
2022-10-19T15:07:19.172Z,15.96
2022-10-19T15:09:59.478Z,15.94
2022-10-19T15:12:37.287Z,15.82
2022-10-19T15:15:13.858Z,15.80
2022-10-19T15:17:56.461Z,15.70
2022-10-19T15:20:43.801Z,15.55
2022-10-19T15:23:41.431Z,15.59
2022-10-19T15:26:21.875Z,15.46
2022-10-19T15:28:52.349Z,15.32
2022-10-19T15:31:24.336Z,15.24
2022-10-19T15:33:56.438Z,15.30
2022-10-19T15:36:30.376Z,15.18
2022-10-19T15:39:18.249Z,15.05
2022-10-19T15:41:55.095Z,14.87
2022-10-19T15:44:36.515Z,14.74
2022-10-19T15:47:25.458Z,14.68
2022-10-19T15:50:02.088Z,14.65
2022-10-19T15:52:36.854Z,14.58
2022-10-19T15:55:07.412Z,14.48
2022-10-19T15:57:42.017Z,14.36
2022-10-19T16:00:17.145Z,14.19
2022-10-19T16:02:47.509Z,14.22
2022-10-19T16:05:18.249Z,14.20
2022-10-19T16:07:51.417Z,14.09
2022-10-19T16:10:23.891Z,13.98
2022-10-19T16:12:53.899Z,13.83
2022-10-19T16:15:28.277Z,13.69
2022-10-19T16:18:08.205Z,13.55
2022-10-19T16:20:39.007Z,13.56
2022-10-19T16:23:13.268Z,13.59
2022-10-19T16:25:43.537Z,13.59
2022-10-19T16:28:13.774Z,13.58
2022-10-19T16:30:46.455Z,13.59
2022-10-19T16:33:16.549Z,13.64
2022-10-19T16:35:46.619Z,13.70
2022-10-19T16:38:22.223Z,13.57
2022-10-19T16:40:52.306Z,13.43
2022-10-19T16:43:22.420Z,13.33
2022-10-19T16:45:52.992Z,13.33
2022-10-19T16:48:24.214Z,13.20
2022-10-19T16:51:33.191Z,13.06
2022-10-19T16:54:07.758Z,13.16
2022-10-19T16:56:39.037Z,12.98
2022-10-19T16:59:09.770Z,12.97
2022-10-19T17:01:40.101Z,12.92
2022-10-19T17:04:10.672Z,12.91
2022-10-19T17:06:40.866Z,12.81
2022-10-19T17:09:37.010Z,12.77
2022-10-19T17:12:04.330Z,12.74
2022-10-19T17:14:34.516Z,12.70
2022-10-19T17:17:05.036Z,12.59
2022-10-19T17:19:35.407Z,12.59
2022-10-19T17:22:06.111Z,12.52
2022-10-19T17:24:39.413Z,12.45
2022-10-19T17:27:09.914Z,12.40
2022-10-19T17:29:40.020Z,12.35
2022-10-19T17:32:10.261Z,12.37
2022-10-19T17:34:40.418Z,12.17
2022-10-19T17:37:10.658Z,12.01
2022-10-19T17:39:43.697Z,12.01
2022-10-19T17:42:13.945Z,12.12
2022-10-19T17:44:44.203Z,12.16
2022-10-19T17:47:14.326Z,12.19
2022-10-19T17:49:44.630Z,12.26
2022-10-19T17:52:14.748Z,12.21
2022-10-19T17:54:54.810Z,12.14
2022-10-19T17:57:38.753Z,12.16
2022-10-19T18:00:10.591Z,12.13
2022-10-19T18:02:46.290Z,12.14
2022-10-19T18:05:17.247Z,12.09
2022-10-19T18:07:49.556Z,12.09
2022-10-19T18:10:22.374Z,12.08
2022-10-19T18:12:52.445Z,11.92
2022-10-19T18:15:23.105Z,11.80
2022-10-19T18:17:53.435Z,11.79
2022-10-19T18:20:23.480Z,11.69
2022-10-19T18:22:53.515Z,11.81
2022-10-19T18:25:49.457Z,11.87
2022-10-19T18:28:16.871Z,11.86
2022-10-19T18:30:47.730Z,11.71
2022-10-19T18:33:17.794Z,11.65
2022-10-19T18:35:47.900Z,11.65
2022-10-19T18:38:18.104Z,11.51
2022-10-19T18:40:50.926Z,11.66
2022-10-19T18:43:24.275Z,11.73
2022-10-19T18:45:58.739Z,11.58
2022-10-19T18:48:30.212Z,11.55
2022-10-19T18:51:00.883Z,11.52
2022-10-19T18:53:31.027Z,11.39
2022-10-19T18:56:06.098Z,11.26
2022-10-19T18:58:37.290Z,11.18
2022-10-19T19:01:09.530Z,11.14
2022-10-19T19:03:41.407Z,11.13
2022-10-19T19:06:13.225Z,11.03
2022-10-19T19:11:40.982Z,11.02
2022-10-19T19:14:15.463Z,11.02
2022-10-19T19:16:47.216Z,11.03
2022-10-19T19:19:19.750Z,10.91
2022-10-19T19:21:51.446Z,10.83
2022-10-19T19:24:28.220Z,10.74
2022-10-19T19:27:01.692Z,10.65
2022-10-19T19:29:31.987Z,10.56
2022-10-19T19:32:02.087Z,10.45
2022-10-19T19:34:32.292Z,10.40
2022-10-19T19:37:04.151Z,10.24
2022-10-19T19:39:35.789Z,10.25
2022-10-19T19:42:08.929Z,10.20
2022-10-19T19:44:39.077Z,10.18
2022-10-19T19:47:09.625Z,10.14
2022-10-19T19:49:39.886Z,10.21
2022-10-19T19:52:10.077Z,10.09
2022-10-19T19:54:40.667Z,10.05
2022-10-19T19:57:16.599Z,9.98
2022-10-19T19:59:46.650Z,9.91
2022-10-19T20:02:16.838Z,9.96
2022-10-19T20:04:46.862Z,9.82
2022-10-19T20:07:16.947Z,9.79
2022-10-19T20:09:47.159Z,9.72
2022-10-19T20:12:20.211Z,9.69
2022-10-19T20:14:50.299Z,9.63
2022-10-19T20:17:23.804Z,9.62
2022-10-19T20:19:54.180Z,9.66
2022-10-19T20:22:26.264Z,9.69
2022-10-19T20:24:56.377Z,9.70
2022-10-19T20:27:29.514Z,9.65
2022-10-19T20:30:00.671Z,9.65
2022-10-19T20:32:32.349Z,9.68
2022-10-19T20:35:03.841Z,9.55
2022-10-19T20:37:34.348Z,9.55
2022-10-19T20:40:08.507Z,9.30
2022-10-19T20:42:42.561Z,9.29
2022-10-19T20:45:16.586Z,9.29
2022-10-19T20:47:47.297Z,9.18
2022-10-19T20:50:20.586Z,9.17
2022-10-19T20:52:54.451Z,9.27
2022-10-19T20:55:25.610Z,9.30
2022-10-19T20:57:58.878Z,9.15
2022-10-19T21:00:29.422Z,9.15
2022-10-19T21:03:00.690Z,9.17
2022-10-19T21:05:31.438Z,9.09
2022-10-19T21:08:02.446Z,8.99
2022-10-19T21:10:32.950Z,8.98
2022-10-19T21:13:06.047Z,8.98
2022-10-19T21:15:41.417Z,8.91
2022-10-19T21:18:11.684Z,8.90
2022-10-19T21:20:42.148Z,8.90
2022-10-19T21:23:12.507Z,8.94
2022-10-19T21:25:42.672Z,8.90
2022-10-19T21:28:15.659Z,8.86
2022-10-19T21:30:48.326Z,8.68
2022-10-19T21:33:18.606Z,8.66
2022-10-19T21:35:51.795Z,8.76
2022-10-19T21:38:21.909Z,8.71
2022-10-19T21:40:52.562Z,8.63
2022-10-19T21:43:26.050Z,8.54
2022-10-19T21:45:56.699Z,8.51
2022-10-19T21:48:27.255Z,8.39
2022-10-19T21:50:57.734Z,8.47
2022-10-19T21:53:33.859Z,8.42
2022-10-19T21:56:04.160Z,8.35
2022-10-19T21:58:37.397Z,8.28
2022-10-19T22:01:08.807Z,8.27
2022-10-19T22:03:39.037Z,8.23
2022-10-19T22:06:09.531Z,8.08
2022-10-19T22:08:40.119Z,8.13
2022-10-19T22:11:12.432Z,8.09
2022-10-19T22:13:45.900Z,8.06
2022-10-19T22:16:19.045Z,7.98
2022-10-19T22:18:49.686Z,7.95
2022-10-19T22:21:22.262Z,7.93
2022-10-19T22:23:59.402Z,8.01
2022-10-19T22:26:31.409Z,7.95
2022-10-19T22:29:06.430Z,7.85
2022-10-19T22:31:37.860Z,7.85
2022-10-19T22:34:10.499Z,7.81
2022-10-19T22:36:40.910Z,7.84
2022-10-19T22:39:11.329Z,7.87
2022-10-19T22:41:41.499Z,7.82
2022-10-19T22:44:14.304Z,7.84
2022-10-19T22:46:44.822Z,7.82
2022-10-19T22:49:15.243Z,7.87
2022-10-19T22:51:45.480Z,7.71
2022-10-19T22:54:16.201Z,7.66
2022-10-19T22:56:46.647Z,7.58
2022-10-19T22:59:19.571Z,7.61
2022-10-19T23:01:52.649Z,7.59
2022-10-19T23:04:22.914Z,7.56
2022-10-19T23:06:53.240Z,7.52
2022-10-19T23:09:24.042Z,7.59
2022-10-19T23:11:54.212Z,7.57
2022-10-19T23:14:27.292Z,7.51
2022-10-19T23:16:59.550Z,7.63
2022-10-19T23:19:29.850Z,7.58
2022-10-19T23:22:00.246Z,7.55
2022-10-19T23:24:30.359Z,7.44
2022-10-19T23:27:00.436Z,7.37
2022-10-19T23:29:33.386Z,7.43
2022-10-19T23:32:03.964Z,7.39
2022-10-19T23:37:05.192Z,7.42
2022-10-19T23:39:35.560Z,7.33
2022-10-19T23:42:05.690Z,7.31
2022-10-19T23:44:38.605Z,7.29
2022-10-19T23:47:08.932Z,7.33
2022-10-19T23:49:39.064Z,7.24
2022-10-19T23:52:09.476Z,7.20
2022-10-19T23:54:39.614Z,7.17
2022-10-19T23:57:09.771Z,7.18
2022-10-19T23:59:42.550Z,7.19
